createdAt,value
2017-05-13T00:00:54.327Z,0
2017-05-13T00:01:55.283Z,0
2017-05-13T00:02:54.692Z,0
2017-05-13T00:03:54.704Z,0
2017-05-13T00:04:55.632Z,0
2017-05-13T00:05:54.765Z,0
2017-05-13T00:06:55.431Z,0
2017-05-13T00:07:55.182Z,0
2017-05-13T00:08:55.493Z,0
2017-05-13T00:09:55.133Z,0
2017-05-13T00:10:55.534Z,0
2017-05-13T00:11:55.595Z,0
2017-05-13T00:12:54.971Z,0
2017-05-13T00:13:55.608Z,0
2017-05-13T00:14:55.892Z,0
2017-05-13T00:15:55.358Z,0
2017-05-13T00:16:55.693Z,0
2017-05-13T00:17:55.415Z,0
2017-05-13T00:18:55.752Z,0
2017-05-13T00:19:55.780Z,0
2017-05-13T00:20:55.394Z,0
2017-05-13T00:21:55.846Z,0
2017-05-13T00:22:54.632Z,0
2017-05-13T00:23:55.574Z,0
2017-05-13T00:24:55.923Z,0
2017-05-13T00:25:55.834Z,0
2017-05-13T00:26:55.354Z,0
2017-05-13T00:27:55.375Z,0
2017-05-13T00:28:55.723Z,0
2017-05-13T00:29:56.052Z,0
2017-05-13T00:30:56.029Z,0
2017-05-13T00:31:55.803Z,0
2017-05-13T00:32:56.146Z,0
2017-05-13T00:33:55.851Z,0
2017-05-13T00:34:55.880Z,0
2017-05-13T00:35:56.113Z,0
2017-05-13T00:36:55.309Z,0
2017-05-13T00:37:55.957Z,0
2017-05-13T00:38:55.983Z,0
2017-05-13T00:39:56.020Z,0
2017-05-13T00:40:55.989Z,0
2017-05-13T00:41:56.397Z,0
2017-05-13T00:42:56.415Z,0
2017-05-13T00:43:56.127Z,0
2017-05-13T00:44:55.843Z,0
2017-05-13T00:45:56.393Z,0
2017-05-13T00:46:56.214Z,0
2017-05-13T00:47:56.243Z,0
2017-05-13T00:48:56.267Z,0
2017-05-13T00:49:56.307Z,0
2017-05-13T00:50:56.836Z,0
2017-05-13T00:51:56.673Z,0
2017-05-13T00:52:56.734Z,0
2017-05-13T00:53:56.712Z,0
2017-05-13T00:54:56.756Z,0
2017-05-13T00:55:57.020Z,0
2017-05-13T00:56:56.489Z,0
2017-05-13T00:57:56.206Z,0
2017-05-13T00:58:56.857Z,0
2017-05-13T00:59:56.596Z,0
2017-05-13T01:00:57.171Z,0
2017-05-13T01:01:56.941Z,0
2017-05-13T01:02:56.346Z,0
2017-05-13T01:03:56.734Z,0
2017-05-13T01:04:56.091Z,0
2017-05-13T01:05:57.248Z,0
2017-05-13T01:06:57.080Z,0
2017-05-13T01:07:56.486Z,0
2017-05-13T01:08:57.130Z,0
2017-05-13T01:09:57.155Z,0
2017-05-13T01:10:57.133Z,0
2017-05-13T01:11:56.904Z,0
2017-05-13T01:12:56.941Z,0
2017-05-13T01:13:56.646Z,0
2017-05-13T01:14:56.986Z,0
2017-05-13T01:15:56.899Z,0
2017-05-13T01:16:57.356Z,0
2017-05-13T01:17:57.384Z,0
2017-05-13T01:18:57.090Z,0
2017-05-13T01:19:56.807Z,0
2017-05-13T01:20:57.672Z,0
2017-05-13T01:21:57.180Z,0
2017-05-13T01:22:57.208Z,0
2017-05-13T01:23:57.234Z,0
2017-05-13T01:24:57.271Z,0
2017-05-13T01:25:57.803Z,0
2017-05-13T01:26:57.314Z,0
2017-05-13T01:27:57.380Z,0
2017-05-13T01:28:57.373Z,0
2017-05-13T01:29:57.724Z,0
2017-05-13T01:30:57.623Z,0
2017-05-13T01:31:57.767Z,0
2017-05-13T01:32:57.850Z,0
2017-05-13T01:33:56.890Z,0
2017-05-13T01:34:57.855Z,0
2017-05-13T01:35:57.450Z,0
2017-05-13T01:36:57.907Z,0
2017-05-13T01:37:57.629Z,0
2017-05-13T01:38:57.652Z,0
2017-05-13T01:39:57.686Z,0
2017-05-13T01:40:57.910Z,0
2017-05-13T01:41:57.459Z,0
2017-05-13T01:42:57.760Z,0
2017-05-13T01:43:58.098Z,0
2017-05-13T01:44:57.815Z,0
2017-05-13T01:45:58.401Z,0
2017-05-13T01:46:58.185Z,0
2017-05-13T01:47:58.216Z,0
2017-05-13T01:48:57.920Z,0
2017-05-13T01:49:58.269Z,0
2017-05-13T01:50:58.550Z,0
2017-05-13T01:51:58.329Z,0
2017-05-13T01:52:58.035Z,0
2017-05-13T01:53:58.108Z,0
2017-05-13T01:54:57.781Z,0
2017-05-13T01:55:58.637Z,0
2017-05-13T01:56:58.140Z,0
2017-05-13T01:57:57.869Z,0
2017-05-13T01:58:58.208Z,0
2017-05-13T01:59:57.917Z,0
2017-05-13T02:00:58.817Z,0
2017-05-13T02:01:58.332Z,0
2017-05-13T02:02:58.312Z,0
2017-05-13T02:03:58.644Z,0
2017-05-13T02:04:58.376Z,0
2017-05-13T02:05:58.593Z,0
2017-05-13T02:06:58.110Z,0
2017-05-13T02:07:58.491Z,0
2017-05-13T02:08:58.156Z,0
2017-05-13T02:09:58.500Z,0
2017-05-13T02:10:58.785Z,0
2017-05-13T02:11:58.242Z,0
2017-05-13T02:12:58.908Z,0
2017-05-13T02:13:58.620Z,0
2017-05-13T02:14:58.041Z,0
2017-05-13T02:15:58.918Z,0
2017-05-13T02:16:58.701Z,0
2017-05-13T02:17:58.410Z,0
2017-05-13T02:18:59.063Z,0
2017-05-13T02:19:59.093Z,0
2017-05-13T02:20:59.377Z,0
2017-05-13T02:21:58.522Z,0
2017-05-13T02:22:58.866Z,0
2017-05-13T02:23:59.213Z,0
2017-05-13T02:24:58.921Z,0
2017-05-13T02:25:59.142Z,0
2017-05-13T02:26:58.974Z,0
2017-05-13T02:27:58.998Z,0
2017-05-13T02:28:59.344Z,0
2017-05-13T02:29:59.062Z,0
2017-05-13T02:30:59.594Z,0
2017-05-13T02:31:59.422Z,0
2017-05-13T02:32:59.454Z,0
2017-05-13T02:33:59.478Z,0
2017-05-13T02:34:58.872Z,0
2017-05-13T02:35:59.731Z,0
2017-05-13T02:36:59.250Z,0
2017-05-13T02:37:59.275Z,0
2017-05-13T02:38:59.000Z,0
2017-05-13T02:39:59.336Z,0
2017-05-13T02:40:59.920Z,0
2017-05-13T02:41:59.698Z,0
2017-05-13T02:42:59.107Z,0
2017-05-13T02:43:59.751Z,0
2017-05-13T02:44:59.779Z,0
2017-05-13T02:45:59.177Z,0
2017-05-13T02:46:59.778Z,0
2017-05-13T02:47:59.550Z,0
2017-05-13T02:48:59.586Z,0
2017-05-13T02:49:59.603Z,0
2017-05-13T02:50:59.947Z,0
2017-05-13T02:52:00.225Z,0
2017-05-13T02:52:59.722Z,0
2017-05-13T02:53:59.714Z,0
2017-05-13T02:54:59.739Z,0
2017-05-13T02:55:59.776Z,0
2017-05-13T02:57:00.363Z,0
2017-05-13T02:57:59.826Z,0
2017-05-13T02:59:00.165Z,0
2017-05-13T02:59:59.891Z,0
2017-05-13T03:00:59.908Z,0
2017-05-13T03:02:00.188Z,0
2017-05-13T03:03:00.286Z,0
2017-05-13T03:04:00.305Z,0
2017-05-13T03:05:00.327Z,0
2017-05-13T03:06:00.096Z,0
2017-05-13T03:07:00.373Z,0
2017-05-13T03:08:00.413Z,0
2017-05-13T03:09:00.440Z,0
2017-05-13T03:10:00.155Z,0
2017-05-13T03:11:00.496Z,0
2017-05-13T03:12:00.412Z,0
2017-05-13T03:13:00.553Z,0
2017-05-13T03:14:00.271Z,0
2017-05-13T03:15:00.595Z,0
2017-05-13T03:16:00.364Z,0
2017-05-13T03:17:00.224Z,0
2017-05-13T03:18:00.063Z,0
2017-05-13T03:19:00.721Z,0
2017-05-13T03:20:00.430Z,0
2017-05-13T03:21:00.451Z,0
2017-05-13T03:22:00.735Z,0
2017-05-13T03:23:00.825Z,0
2017-05-13T03:24:00.853Z,0
2017-05-13T03:25:00.574Z,0
2017-05-13T03:26:00.587Z,0
2017-05-13T03:27:01.191Z,0
2017-05-13T03:28:00.651Z,0
2017-05-13T03:29:00.996Z,0
2017-05-13T03:30:01.013Z,0
2017-05-13T03:31:00.427Z,0
2017-05-13T03:32:01.327Z,0
2017-05-13T03:33:01.100Z,0
2017-05-13T03:34:01.133Z,0
2017-05-13T03:35:00.839Z,0
2017-05-13T03:36:00.559Z,0
2017-05-13T03:37:00.475Z,0
2017-05-13T03:38:00.624Z,0
2017-05-13T03:39:00.948Z,0
2017-05-13T03:40:00.972Z,0
2017-05-13T03:41:01.330Z,0
2017-05-13T03:42:01.556Z,0
2017-05-13T03:43:00.751Z,0
2017-05-13T03:44:01.405Z,0
2017-05-13T03:45:01.438Z,0
2017-05-13T03:46:01.145Z,0
2017-05-13T03:47:01.444Z,0
2017-05-13T03:48:01.519Z,0
2017-05-13T03:49:01.537Z,0
2017-05-13T03:50:01.577Z,0
2017-05-13T03:51:01.286Z,0
2017-05-13T03:52:01.869Z,0
2017-05-13T03:53:01.659Z,0
2017-05-13T03:54:01.369Z,0
2017-05-13T03:55:01.089Z,0
2017-05-13T03:56:01.738Z,0
2017-05-13T03:57:01.331Z,0
2017-05-13T03:58:01.166Z,0
2017-05-13T03:59:01.511Z,0
2017-05-13T04:00:01.218Z,0
2017-05-13T04:01:01.553Z,0
2017-05-13T04:02:01.782Z,0
2017-05-13T04:03:01.613Z,0
2017-05-13T04:04:01.644Z,0
2017-05-13T04:05:01.705Z,0
2017-05-13T04:06:01.701Z,0
2017-05-13T04:07:01.925Z,0
2017-05-13T04:08:01.751Z,0
2017-05-13T04:09:01.160Z,0
2017-05-13T04:10:01.801Z,0
2017-05-13T04:11:02.144Z,0
2017-05-13T04:12:02.058Z,0
2017-05-13T04:13:02.203Z,0
2017-05-13T04:14:01.607Z,0
2017-05-13T04:15:01.948Z,0
2017-05-13T04:16:01.969Z,0
2017-05-13T04:17:02.509Z,0
2017-05-13T04:18:01.773Z,0
2017-05-13T04:19:02.056Z,0
2017-05-13T04:20:02.391Z,0
2017-05-13T04:21:01.801Z,0
2017-05-13T04:22:02.332Z,0
2017-05-13T04:23:01.847Z,0
2017-05-13T04:24:02.507Z,0
2017-05-13T04:25:02.209Z,0
2017-05-13T04:26:02.572Z,0
2017-05-13T04:27:02.157Z,0
2017-05-13T04:28:02.611Z,0
2017-05-13T04:29:02.639Z,0
2017-05-13T04:30:02.668Z,0
2017-05-13T04:31:02.692Z,0
2017-05-13T04:32:02.933Z,0
2017-05-13T04:33:02.125Z,0
2017-05-13T04:34:02.154Z,0
2017-05-13T04:35:02.484Z,0
2017-05-13T04:36:02.204Z,0
2017-05-13T04:37:02.856Z,0
2017-05-13T04:38:03.133Z,0
2017-05-13T04:39:02.623Z,0
2017-05-13T04:40:02.009Z,0
2017-05-13T04:41:02.652Z,0
2017-05-13T04:42:02.378Z,0
2017-05-13T04:43:02.649Z,0
2017-05-13T04:44:02.426Z,5
2017-05-13T04:45:03.082Z,0
2017-05-13T04:46:02.493Z,0
2017-05-13T04:47:03.132Z,0
2017-05-13T04:48:03.408Z,0
2017-05-13T04:49:02.889Z,0
2017-05-13T04:50:02.590Z,0
2017-05-13T04:51:03.236Z,0
2017-05-13T04:52:03.281Z,0
2017-05-13T04:53:03.500Z,0
2017-05-13T04:54:03.329Z,0
2017-05-13T04:55:03.038Z,0
2017-05-13T04:56:03.064Z,0
2017-05-13T04:57:03.409Z,0
2017-05-13T04:58:03.365Z,0
2017-05-13T04:59:03.150Z,0
2017-05-13T05:00:02.558Z,0
2017-05-13T05:01:03.519Z,0
2017-05-13T05:02:02.616Z,0
2017-05-13T05:03:03.193Z,0
2017-05-13T05:04:03.635Z,0
2017-05-13T05:05:03.625Z,5
2017-05-13T05:06:03.646Z,5
2017-05-13T05:07:03.059Z,5
2017-05-13T05:08:03.962Z,5
2017-05-13T05:09:03.453Z,5
2017-05-13T05:10:03.143Z,5
2017-05-13T05:11:03.482Z,5
2017-05-13T05:12:03.823Z,5
2017-05-13T05:13:03.785Z,5
2017-05-13T05:14:03.878Z,5
2017-05-13T05:15:03.910Z,5
2017-05-13T05:16:03.623Z,5
2017-05-13T05:17:03.962Z,5
2017-05-13T05:18:03.865Z,5
2017-05-13T05:19:04.053Z,5
2017-05-13T05:20:04.037Z,5
2017-05-13T05:21:03.751Z,5
2017-05-13T05:22:04.096Z,5
2017-05-13T05:23:04.375Z,5
2017-05-13T05:24:04.169Z,5
2017-05-13T05:25:03.549Z,5
2017-05-13T05:26:03.899Z,5
2017-05-13T05:27:04.244Z,5
2017-05-13T05:28:03.882Z,5
2017-05-13T05:29:03.980Z,5
2017-05-13T05:30:03.697Z,5
2017-05-13T05:31:03.398Z,5
2017-05-13T05:32:03.752Z,5
2017-05-13T05:33:04.600Z,5
2017-05-13T05:34:04.116Z,5
2017-05-13T05:35:03.833Z,5
2017-05-13T05:36:04.486Z,5
2017-05-13T05:37:03.887Z,5
2017-05-13T05:38:04.420Z,5
2017-05-13T05:39:04.253Z,5
2017-05-13T05:40:04.641Z,5
2017-05-13T05:41:04.301Z,5
2017-05-13T05:42:04.647Z,5
2017-05-13T05:43:04.562Z,5
2017-05-13T05:44:04.076Z,5
2017-05-13T05:45:04.411Z,10
2017-05-13T05:46:04.746Z,10
2017-05-13T05:47:04.465Z,10
2017-05-13T05:48:04.702Z,10
2017-05-13T05:49:04.535Z,10
2017-05-13T05:50:04.870Z,10
2017-05-13T05:51:04.584Z,10
2017-05-13T05:52:04.917Z,10
2017-05-13T05:53:04.573Z,10
2017-05-13T05:54:04.677Z,10
2017-05-13T05:55:04.385Z,10
2017-05-13T05:56:04.718Z,10
2017-05-13T05:57:05.058Z,10
2017-05-13T05:58:04.978Z,10
2017-05-13T05:59:04.834Z,10
2017-05-13T06:00:04.512Z,10
2017-05-13T06:01:04.848Z,10
2017-05-13T06:02:04.570Z,10
2017-05-13T06:03:05.111Z,10
2017-05-13T06:04:05.262Z,10
2017-05-13T06:05:05.273Z,10
2017-05-13T06:06:04.678Z,10
2017-05-13T06:07:05.332Z,10
2017-05-13T06:08:05.610Z,10
2017-05-13T06:09:05.420Z,10
2017-05-13T06:10:04.521Z,10
2017-05-13T06:11:05.133Z,10
2017-05-13T06:12:05.157Z,10
2017-05-13T06:13:05.385Z,10
2017-05-13T06:14:05.211Z,10
2017-05-13T06:15:04.303Z,10
2017-05-13T06:16:05.584Z,10
2017-05-13T06:17:04.665Z,10
2017-05-13T06:18:05.527Z,10
2017-05-13T06:19:05.662Z,10
2017-05-13T06:20:05.687Z,10
2017-05-13T06:21:05.402Z,10
2017-05-13T06:22:05.752Z,10
2017-05-13T06:23:05.344Z,15
2017-05-13T06:24:05.803Z,10
2017-05-13T06:25:05.197Z,10
2017-05-13T06:26:05.896Z,10
2017-05-13T06:27:05.894Z,10
2017-05-13T06:28:05.851Z,10
2017-05-13T06:29:05.944Z,15
2017-05-13T06:30:05.343Z,10
2017-05-13T06:31:05.679Z,10
2017-05-13T06:32:05.392Z,15
2017-05-13T06:33:06.255Z,20
2017-05-13T06:34:05.453Z,15
2017-05-13T06:35:06.100Z,10
2017-05-13T06:36:06.123Z,10
2017-05-13T06:37:05.834Z,10
2017-05-13T06:38:05.873Z,10
2017-05-13T06:39:06.151Z,10
2017-05-13T06:40:06.244Z,10
2017-05-13T06:41:06.267Z,10
2017-05-13T06:42:06.353Z,10
2017-05-13T06:43:05.706Z,10
2017-05-13T06:44:06.550Z,5
2017-05-13T06:45:06.387Z,5
2017-05-13T06:46:06.406Z,5
2017-05-13T06:47:06.125Z,5
2017-05-13T06:48:06.464Z,10
2017-05-13T06:49:06.382Z,10
2017-05-13T06:50:06.201Z,10
2017-05-13T06:51:05.610Z,10
2017-05-13T06:52:06.575Z,10
2017-05-13T06:53:05.980Z,15
2017-05-13T06:54:06.214Z,10
2017-05-13T06:55:06.655Z,10
2017-05-13T06:56:06.068Z,10
2017-05-13T06:57:06.084Z,10
2017-05-13T06:58:06.740Z,10
2017-05-13T06:59:06.341Z,15
2017-05-13T07:00:06.169Z,15
2017-05-13T07:01:06.510Z,10
2017-05-13T07:02:06.229Z,10
2017-05-13T07:03:06.259Z,10
2017-05-13T07:04:06.795Z,10
2017-05-13T07:05:06.938Z,10
2017-05-13T07:06:06.655Z,10
2017-05-13T07:07:06.372Z,10
2017-05-13T07:08:06.402Z,10
2017-05-13T07:09:06.938Z,10
2017-05-13T07:10:07.120Z,10
2017-05-13T07:11:06.779Z,10
2017-05-13T07:12:06.815Z,10
2017-05-13T07:13:07.148Z,10
2017-05-13T07:14:06.804Z,10
2017-05-13T07:15:06.270Z,10
2017-05-13T07:16:06.923Z,10
2017-05-13T07:17:07.267Z,10
2017-05-13T07:18:07.290Z,10
2017-05-13T07:19:07.566Z,10
2017-05-13T07:20:06.714Z,10
2017-05-13T07:21:07.061Z,10
2017-05-13T07:22:07.087Z,10
2017-05-13T07:23:06.812Z,10
2017-05-13T07:24:07.701Z,10
2017-05-13T07:25:07.177Z,10
2017-05-13T07:26:07.197Z,10
2017-05-13T07:27:07.231Z,10
2017-05-13T07:28:07.286Z,10
2017-05-13T07:29:07.177Z,10
2017-05-13T07:30:07.000Z,10
2017-05-13T07:31:07.342Z,15
2017-05-13T07:32:07.683Z,15
2017-05-13T07:33:07.716Z,15
2017-05-13T07:34:07.623Z,20
2017-05-13T07:35:07.449Z,25
2017-05-13T07:36:07.489Z,30
2017-05-13T07:37:07.522Z,40
2017-05-13T07:38:07.854Z,40
2017-05-13T07:39:08.120Z,40
2017-05-13T07:40:07.646Z,35
2017-05-13T07:41:07.925Z,40
2017-05-13T07:42:07.641Z,40
2017-05-13T07:43:06.735Z,40
2017-05-13T07:44:07.899Z,35
2017-05-13T07:45:07.416Z,35
2017-05-13T07:46:07.747Z,35
2017-05-13T07:47:08.101Z,35
2017-05-13T07:48:08.203Z,35
2017-05-13T07:49:08.038Z,40
2017-05-13T07:50:07.879Z,40
2017-05-13T07:51:08.194Z,35
2017-05-13T07:52:07.934Z,35
2017-05-13T07:53:07.958Z,35
2017-05-13T07:54:08.490Z,40
2017-05-13T07:55:08.384Z,40
2017-05-13T07:56:08.032Z,40
2017-05-13T07:57:08.057Z,40
2017-05-13T07:58:08.401Z,40
2017-05-13T07:59:08.002Z,40
2017-05-13T08:00:08.123Z,35
2017-05-13T08:01:08.208Z,35
2017-05-13T08:02:08.213Z,35
2017-05-13T08:03:08.608Z,35
2017-05-13T08:04:08.767Z,35
2017-05-13T08:05:08.322Z,35
2017-05-13T08:06:08.311Z,35
2017-05-13T08:07:08.645Z,35
2017-05-13T08:08:08.380Z,35
2017-05-13T08:09:08.915Z,30
2017-05-13T08:10:08.130Z,35
2017-05-13T08:11:08.453Z,35
2017-05-13T08:12:08.484Z,35
2017-05-13T08:13:08.529Z,40
2017-05-13T08:14:09.066Z,45
2017-05-13T08:15:08.886Z,50
2017-05-13T08:16:08.908Z,50
2017-05-13T08:17:08.628Z,60
2017-05-13T08:18:08.958Z,55
2017-05-13T08:19:08.706Z,35
2017-05-13T08:20:08.955Z,30
2017-05-13T08:21:08.736Z,30
2017-05-13T08:22:08.765Z,35
2017-05-13T08:23:08.793Z,50
2017-05-13T08:24:08.834Z,60
2017-05-13T08:25:09.108Z,50
2017-05-13T08:26:08.880Z,50
2017-05-13T08:27:09.225Z,40
2017-05-13T08:28:08.942Z,40
2017-05-13T08:29:09.275Z,40
2017-05-13T08:30:09.502Z,40
2017-05-13T08:31:09.014Z,40
2017-05-13T08:32:09.055Z,40
2017-05-13T08:33:09.078Z,35
2017-05-13T08:34:09.414Z,35
2017-05-13T08:35:09.699Z,35
2017-05-13T08:36:08.848Z,35
2017-05-13T08:37:09.518Z,40
2017-05-13T08:38:09.529Z,40
2017-05-13T08:39:08.935Z,45
2017-05-13T08:40:09.480Z,50
2017-05-13T08:41:09.297Z,50
2017-05-13T08:42:09.330Z,50
2017-05-13T08:43:09.687Z,50
2017-05-13T08:44:09.391Z,55
2017-05-13T08:45:09.615Z,55
2017-05-13T08:46:09.443Z,60
2017-05-13T08:47:09.461Z,60
2017-05-13T08:48:09.814Z,55
2017-05-13T08:49:09.530Z,55
2017-05-13T08:50:09.439Z,60
2017-05-13T08:51:09.895Z,60
2017-05-13T08:52:09.616Z,60
2017-05-13T08:53:09.994Z,60
2017-05-13T08:54:09.980Z,55
2017-05-13T08:55:10.271Z,50
2017-05-13T08:56:10.033Z,45
2017-05-13T08:57:09.800Z,45
2017-05-13T08:58:10.093Z,40
2017-05-13T08:59:09.815Z,45
2017-05-13T09:00:10.039Z,45
2017-05-13T09:01:09.547Z,45
2017-05-13T09:02:08.965Z,40
2017-05-13T09:03:10.241Z,35
2017-05-13T09:04:09.325Z,35
2017-05-13T09:05:09.871Z,40
2017-05-13T09:06:10.031Z,45
2017-05-13T09:07:10.361Z,50
2017-05-13T09:08:10.439Z,50
2017-05-13T09:09:10.409Z,45
2017-05-13T09:10:10.327Z,50
2017-05-13T09:11:10.155Z,55
2017-05-13T09:12:10.176Z,60
2017-05-13T09:13:10.521Z,70
2017-05-13T09:14:09.618Z,75
2017-05-13T09:15:10.143Z,75
2017-05-13T09:16:09.989Z,75
2017-05-13T09:17:10.635Z,75
2017-05-13T09:18:10.353Z,75
2017-05-13T09:19:10.386Z,75
2017-05-13T09:20:10.607Z,70
2017-05-13T09:21:10.128Z,70
2017-05-13T09:22:10.154Z,75
2017-05-13T09:23:10.491Z,80
2017-05-13T09:24:10.209Z,80
2017-05-13T09:25:10.759Z,75
2017-05-13T09:26:10.898Z,75
2017-05-13T09:27:10.928Z,75
2017-05-13T09:28:10.630Z,55
2017-05-13T09:29:10.390Z,60
2017-05-13T09:30:11.215Z,75
2017-05-13T09:31:10.411Z,70
2017-05-13T09:32:10.760Z,55
2017-05-13T09:33:11.097Z,45
2017-05-13T09:34:10.809Z,40
2017-05-13T09:35:11.358Z,40
2017-05-13T09:36:11.183Z,50
2017-05-13T09:37:11.212Z,50
2017-05-13T09:38:10.933Z,50
2017-05-13T09:39:10.985Z,45
2017-05-13T09:40:11.190Z,40
2017-05-13T09:41:11.023Z,40
2017-05-13T09:42:10.725Z,50
2017-05-13T09:43:11.076Z,55
2017-05-13T09:44:11.417Z,60
2017-05-13T09:45:11.021Z,55
2017-05-13T09:46:11.164Z,55
2017-05-13T09:47:11.184Z,50
2017-05-13T09:48:11.520Z,50
2017-05-13T09:49:11.253Z,50
2017-05-13T09:50:11.785Z,50
2017-05-13T09:51:11.318Z,55
2017-05-13T09:52:11.333Z,65
2017-05-13T09:53:11.672Z,65
2017-05-13T09:54:11.389Z,50
2017-05-13T09:55:11.618Z,45
2017-05-13T09:56:11.450Z,40
2017-05-13T09:57:11.483Z,35
2017-05-13T09:58:11.819Z,35
2017-05-13T09:59:11.220Z,35
2017-05-13T10:00:11.773Z,35
2017-05-13T10:01:11.901Z,35
2017-05-13T10:02:11.616Z,30
2017-05-13T10:03:11.950Z,25
2017-05-13T10:04:11.673Z,30
2017-05-13T10:05:11.897Z,30
2017-05-13T10:06:11.731Z,20
2017-05-13T10:07:11.761Z,20
2017-05-13T10:08:11.783Z,15
2017-05-13T10:09:12.133Z,20
2017-05-13T10:10:12.413Z,20
2017-05-13T10:11:11.879Z,25
2017-05-13T10:12:12.220Z,25
2017-05-13T10:13:12.236Z,25
2017-05-13T10:14:12.283Z,30
2017-05-13T10:15:12.501Z,30
2017-05-13T10:16:12.015Z,30
2017-05-13T10:17:12.076Z,20
2017-05-13T10:18:12.081Z,20
2017-05-13T10:19:12.418Z,20
2017-05-13T10:20:12.118Z,20
2017-05-13T10:21:11.850Z,30
2017-05-13T10:22:12.196Z,35
2017-05-13T10:23:12.220Z,40
2017-05-13T10:24:12.261Z,55
2017-05-13T10:25:12.790Z,75
2017-05-13T10:26:11.998Z,75
2017-05-13T10:27:12.651Z,75
2017-05-13T10:28:11.439Z,65
2017-05-13T10:29:12.705Z,55
2017-05-13T10:30:12.626Z,50
2017-05-13T10:31:12.770Z,35
2017-05-13T10:32:12.795Z,30
2017-05-13T10:33:12.820Z,35
2017-05-13T10:34:12.536Z,50
2017-05-13T10:35:12.765Z,60
2017-05-13T10:36:12.282Z,55
2017-05-13T10:37:12.318Z,55
2017-05-13T10:38:12.659Z,55
2017-05-13T10:39:12.988Z,75
2017-05-13T10:40:12.909Z,75
2017-05-13T10:41:12.110Z,80
2017-05-13T10:42:13.084Z,80
2017-05-13T10:43:13.111Z,95
2017-05-13T10:44:12.824Z,90
2017-05-13T10:45:13.049Z,80
2017-05-13T10:46:12.265Z,70
2017-05-13T10:47:13.239Z,75
2017-05-13T10:48:12.628Z,85
2017-05-13T10:49:12.973Z,95
2017-05-13T10:50:13.193Z,85
2017-05-13T10:51:12.709Z,70
2017-05-13T10:52:13.371Z,65
2017-05-13T10:53:12.782Z,90
2017-05-13T10:54:13.427Z,85
2017-05-13T10:55:13.709Z,85
2017-05-13T10:56:13.499Z,80
2017-05-13T10:57:13.523Z,70
2017-05-13T10:58:13.546Z,85
2017-05-13T10:59:13.265Z,60
2017-05-13T11:00:13.805Z,60
2017-05-13T11:01:13.638Z,60
2017-05-13T11:02:13.663Z,65
2017-05-13T11:03:13.096Z,55
2017-05-13T11:04:13.721Z,50
2017-05-13T11:05:13.326Z,55
2017-05-13T11:06:13.472Z,50
2017-05-13T11:07:13.178Z,45
2017-05-13T11:08:13.206Z,85
2017-05-13T11:09:13.872Z,65
2017-05-13T11:10:13.824Z,55
2017-05-13T11:11:13.643Z,35
2017-05-13T11:12:13.640Z,30
2017-05-13T11:13:13.039Z,25
2017-05-13T11:14:13.380Z,35
2017-05-13T11:15:13.981Z,55
2017-05-13T11:16:13.765Z,55
2017-05-13T11:17:14.099Z,45
2017-05-13T11:18:14.123Z,45
2017-05-13T11:19:13.848Z,45
2017-05-13T11:20:14.119Z,50
2017-05-13T11:21:13.896Z,55
2017-05-13T11:22:13.619Z,115
2017-05-13T11:23:14.271Z,110
2017-05-13T11:24:13.989Z,110
2017-05-13T11:25:14.225Z,125
2017-05-13T11:26:13.417Z,135
2017-05-13T11:27:14.131Z,140
2017-05-13T11:28:14.420Z,40
2017-05-13T11:29:14.139Z,65
2017-05-13T11:30:14.740Z,160
2017-05-13T11:31:14.509Z,205
2017-05-13T11:32:13.901Z,285
2017-05-13T11:33:14.269Z,315
2017-05-13T11:34:14.581Z,310
2017-05-13T11:35:14.531Z,60
2017-05-13T11:36:14.672Z,60
2017-05-13T11:37:14.670Z,70
2017-05-13T11:38:14.707Z,195
2017-05-13T11:39:14.715Z,115
2017-05-13T11:40:14.344Z,75
2017-05-13T11:41:14.485Z,100
2017-05-13T11:42:14.818Z,410
2017-05-13T11:43:14.230Z,365
2017-05-13T11:44:14.566Z,90
2017-05-13T11:45:14.843Z,70
2017-05-13T11:46:14.309Z,190
2017-05-13T11:47:14.966Z,95
2017-05-13T11:48:14.684Z,115
2017-05-13T11:49:15.036Z,375
2017-05-13T11:50:14.944Z,345
2017-05-13T11:51:15.095Z,250
2017-05-13T11:52:15.115Z,80
2017-05-13T11:53:14.527Z,50
2017-05-13T11:54:15.175Z,160
2017-05-13T11:55:15.459Z,60
2017-05-13T11:56:14.610Z,65
2017-05-13T11:57:14.955Z,80
2017-05-13T11:58:15.289Z,235
2017-05-13T11:59:14.700Z,70
2017-05-13T12:00:15.613Z,70
2017-05-13T12:01:15.388Z,45
2017-05-13T12:02:15.422Z,50
2017-05-13T12:03:15.453Z,55
2017-05-13T12:04:14.543Z,310
2017-05-13T12:05:15.761Z,295
2017-05-13T12:06:15.540Z,310
2017-05-13T12:07:14.633Z,310
2017-05-13T12:08:15.289Z,310
2017-05-13T12:09:15.623Z,290
2017-05-13T12:10:15.549Z,330
2017-05-13T12:11:15.691Z,345
2017-05-13T12:12:14.788Z,340
2017-05-13T12:13:15.443Z,340
2017-05-13T12:14:15.472Z,380
2017-05-13T12:15:15.758Z,385
2017-05-13T12:16:15.524Z,370
2017-05-13T12:17:15.882Z,355
2017-05-13T12:18:15.927Z,370
2017-05-13T12:19:15.316Z,395
2017-05-13T12:20:15.608Z,450
2017-05-13T12:21:15.997Z,460
2017-05-13T12:22:16.034Z,445
2017-05-13T12:23:15.755Z,425
2017-05-13T12:24:16.094Z,370
2017-05-13T12:25:16.388Z,85
2017-05-13T12:26:15.862Z,330
2017-05-13T12:27:16.199Z,390
2017-05-13T12:28:15.602Z,140
2017-05-13T12:29:16.252Z,350
2017-05-13T12:30:16.225Z,555
2017-05-13T12:31:16.325Z,55
2017-05-13T12:32:16.357Z,50
2017-05-13T12:33:16.389Z,65
2017-05-13T12:34:16.110Z,65
2017-05-13T12:35:16.404Z,70
2017-05-13T12:36:16.176Z,265
2017-05-13T12:37:16.213Z,420
2017-05-13T12:38:16.573Z,440
2017-05-13T12:39:16.275Z,380
2017-05-13T12:40:16.246Z,100
2017-05-13T12:41:16.650Z,80
2017-05-13T12:42:16.362Z,80
2017-05-13T12:43:16.391Z,90
2017-05-13T12:44:16.439Z,95
2017-05-13T12:45:16.348Z,70
2017-05-13T12:46:16.500Z,60
2017-05-13T12:47:16.545Z,60
2017-05-13T12:48:16.870Z,65
2017-05-13T12:49:16.288Z,70
2017-05-13T12:50:17.135Z,90
2017-05-13T12:51:16.972Z,100
2017-05-13T12:52:16.368Z,120
2017-05-13T12:53:16.715Z,140
2017-05-13T12:54:17.053Z,110
2017-05-13T12:55:16.979Z,100
2017-05-13T12:56:16.828Z,95
2017-05-13T12:57:16.534Z,100
2017-05-13T12:58:17.187Z,125
2017-05-13T12:59:16.912Z,140
2017-05-13T13:00:17.192Z,120
2017-05-13T13:01:17.291Z,100
2017-05-13T13:02:17.317Z,80
2017-05-13T13:03:17.035Z,60
2017-05-13T13:04:16.441Z,55
2017-05-13T13:05:17.340Z,50
2017-05-13T13:06:17.420Z,40
2017-05-13T13:07:17.482Z,35
2017-05-13T13:08:17.183Z,40
2017-05-13T13:09:17.536Z,40
2017-05-13T13:10:17.496Z,40
2017-05-13T13:11:17.278Z,35
2017-05-13T13:12:16.997Z,40
2017-05-13T13:13:17.342Z,40
2017-05-13T13:14:17.685Z,40
2017-05-13T13:15:17.903Z,35
2017-05-13T13:16:17.121Z,35
2017-05-13T13:17:17.145Z,35
2017-05-13T13:18:17.803Z,40
2017-05-13T13:19:17.517Z,40
2017-05-13T13:20:18.115Z,50
2017-05-13T13:21:17.264Z,70
2017-05-13T13:22:17.298Z,85
2017-05-13T13:23:17.953Z,85
2017-05-13T13:24:17.350Z,75
2017-05-13T13:25:17.963Z,75
2017-05-13T13:26:18.039Z,130
2017-05-13T13:27:17.445Z,120
2017-05-13T13:28:17.790Z,290
2017-05-13T13:29:17.818Z,330
2017-05-13T13:30:18.372Z,425
2017-05-13T13:31:18.196Z,485
2017-05-13T13:32:17.605Z,580
2017-05-13T13:33:17.638Z,455
2017-05-13T13:34:17.654Z,270
2017-05-13T13:35:18.575Z,205
2017-05-13T13:36:18.356Z,185
2017-05-13T13:37:18.070Z,185
2017-05-13T13:38:17.782Z,175
2017-05-13T13:39:18.442Z,70
2017-05-13T13:40:18.723Z,50
2017-05-13T13:41:18.193Z,55
2017-05-13T13:42:18.216Z,55
2017-05-13T13:43:17.946Z,85
2017-05-13T13:44:18.629Z,110
2017-05-13T13:45:18.547Z,65
2017-05-13T13:46:18.655Z,55
2017-05-13T13:47:18.693Z,75
2017-05-13T13:48:18.413Z,80
2017-05-13T13:49:18.444Z,150
2017-05-13T13:50:18.980Z,140
2017-05-13T13:51:18.859Z,115
2017-05-13T13:52:18.537Z,55
2017-05-13T13:53:18.873Z,50
2017-05-13T13:54:18.597Z,65
2017-05-13T13:55:19.188Z,50
2017-05-13T13:56:18.344Z,45
2017-05-13T13:57:18.377Z,90
2017-05-13T13:58:18.720Z,80
2017-05-13T13:59:18.430Z,105
2017-05-13T14:00:18.719Z,100
2017-05-13T14:01:18.816Z,70
2017-05-13T14:02:18.848Z,95
2017-05-13T14:03:18.878Z,70
2017-05-13T14:04:18.912Z,90
2017-05-13T14:05:19.184Z,135
2017-05-13T14:06:19.288Z,150
2017-05-13T14:07:18.677Z,135
2017-05-13T14:08:18.725Z,130
2017-05-13T14:09:18.751Z,135
2017-05-13T14:10:19.291Z,110
2017-05-13T14:11:19.112Z,110
2017-05-13T14:12:19.461Z,90
2017-05-13T14:13:18.873Z,80
2017-05-13T14:14:19.531Z,65
2017-05-13T14:15:19.816Z,50
2017-05-13T14:16:18.963Z,45
2017-05-13T14:17:19.310Z,40
2017-05-13T14:18:19.652Z,40
2017-05-13T14:19:19.050Z,40
2017-05-13T14:20:19.355Z,40
2017-05-13T14:21:19.747Z,35
2017-05-13T14:22:19.477Z,35
2017-05-13T14:23:19.180Z,35
2017-05-13T14:24:19.631Z,35
2017-05-13T14:25:20.119Z,35